createdAt,value
2022-12-29T00:01:58.976Z,8.82
2022-12-29T00:04:25.510Z,8.85
2022-12-29T00:06:53.597Z,8.89
2022-12-29T00:09:20.232Z,8.92
2022-12-29T00:11:46.851Z,8.93
2022-12-29T00:14:32.355Z,8.96
2022-12-29T00:16:58.899Z,8.99
2022-12-29T00:19:44.060Z,9.04
2022-12-29T00:22:30.895Z,9.06
2022-12-29T00:25:16.257Z,9.10
2022-12-29T00:28:07.826Z,9.14
2022-12-29T00:30:54.806Z,9.16
2022-12-29T00:33:41.151Z,9.18
2022-12-29T00:36:12.888Z,9.19
2022-12-29T00:39:03.265Z,9.20
2022-12-29T00:41:49.334Z,9.22
2022-12-29T00:44:15.948Z,9.23
2022-12-29T00:46:44.984Z,9.27
2022-12-29T00:49:33.294Z,9.28
2022-12-29T00:52:06.897Z,9.31
2022-12-29T00:54:37.509Z,9.34
2022-12-29T00:57:06.073Z,9.38
2022-12-29T00:59:32.923Z,9.41
2022-12-29T01:01:59.552Z,9.42
2022-12-29T01:04:27.051Z,9.43
2022-12-29T01:06:53.672Z,9.44
2022-12-29T01:09:40.890Z,9.44
2022-12-29T01:12:09.885Z,9.47
2022-12-29T01:14:37.197Z,9.48
2022-12-29T01:17:04.243Z,9.51
2022-12-29T01:19:30.661Z,9.51
2022-12-29T01:21:57.201Z,9.50
2022-12-29T01:24:23.642Z,9.51
2022-12-29T01:26:50.170Z,9.55
2022-12-29T01:29:17.323Z,9.58
2022-12-29T01:31:45.952Z,9.62
2022-12-29T01:34:12.532Z,9.61
2022-12-29T01:36:38.985Z,9.62
2022-12-29T01:39:05.590Z,9.63
2022-12-29T01:41:32.544Z,9.65
2022-12-29T01:44:01.829Z,9.64
2022-12-29T01:46:39.935Z,9.66
2022-12-29T01:49:20.385Z,9.65
2022-12-29T01:51:51.704Z,9.67
2022-12-29T01:54:23.611Z,9.68
2022-12-29T01:56:53.469Z,9.68
2022-12-29T01:59:25.562Z,9.66
2022-12-29T02:01:53.268Z,9.66
2022-12-29T02:04:19.914Z,9.65
2022-12-29T02:06:52.100Z,9.64
2022-12-29T02:09:19.837Z,9.62
2022-12-29T02:11:47.464Z,9.60
2022-12-29T02:14:14.893Z,9.64
2022-12-29T02:17:01.823Z,9.66
2022-12-29T02:19:50.139Z,9.71
2022-12-29T02:22:27.133Z,9.74
2022-12-29T02:25:31.531Z,9.74
2022-12-29T02:28:29.642Z,9.73
2022-12-29T02:31:17.597Z,9.68
2022-12-29T02:34:04.773Z,9.67
2022-12-29T02:36:51.328Z,9.65
2022-12-29T02:39:41.749Z,9.72
2022-12-29T02:42:36.330Z,9.70
2022-12-29T02:45:28.361Z,9.69
2022-12-29T02:48:09.328Z,9.72
2022-12-29T02:50:40.748Z,9.70
2022-12-29T02:53:17.005Z,9.74
2022-12-29T02:55:50.724Z,9.78
2022-12-29T02:58:20.794Z,9.77
2022-12-29T03:01:24.919Z,9.76
2022-12-29T03:04:24.278Z,9.74
2022-12-29T03:07:13.915Z,9.78
2022-12-29T03:09:53.379Z,9.78
2022-12-29T03:13:06.048Z,9.78
2022-12-29T03:16:03.447Z,9.79
2022-12-29T03:18:57.416Z,9.81
2022-12-29T03:21:55.819Z,9.84
2022-12-29T03:24:27.991Z,9.83
2022-12-29T03:26:59.507Z,9.80
2022-12-29T03:29:34.068Z,9.83
2022-12-29T03:32:04.208Z,9.88
2022-12-29T03:34:32.214Z,9.90
2022-12-29T03:37:03.685Z,9.91
2022-12-29T03:39:30.435Z,9.90
2022-12-29T03:42:05.958Z,9.92
2022-12-29T03:44:42.554Z,9.92
2022-12-29T03:47:15.052Z,9.91
2022-12-29T03:49:42.775Z,9.92
2022-12-29T03:52:09.256Z,9.93
2022-12-29T03:54:42.021Z,9.98
2022-12-29T03:57:10.304Z,9.99
2022-12-29T03:59:47.185Z,10.01
2022-12-29T04:02:13.914Z,10.02
2022-12-29T04:04:41.683Z,10.03
2022-12-29T04:07:08.073Z,10.02
2022-12-29T04:09:34.571Z,10.03
2022-12-29T04:12:02.577Z,10.04
2022-12-29T04:14:29.259Z,10.06
2022-12-29T04:16:56.082Z,10.05
2022-12-29T04:19:23.381Z,10.07
2022-12-29T04:21:50.331Z,10.08
2022-12-29T04:24:17.338Z,10.09
2022-12-29T04:26:45.326Z,10.12
2022-12-29T04:29:26.634Z,10.12
2022-12-29T04:32:08.685Z,10.16
2022-12-29T04:34:39.477Z,10.14
2022-12-29T04:37:06.206Z,10.14
2022-12-29T04:39:33.868Z,10.13
2022-12-29T04:42:00.572Z,10.12
2022-12-29T04:44:27.602Z,10.15
2022-12-29T04:47:14.338Z,10.13
2022-12-29T04:50:01.096Z,10.14
2022-12-29T04:52:43.270Z,10.15
2022-12-29T04:55:11.166Z,10.12
2022-12-29T04:57:37.950Z,10.11
2022-12-29T05:00:06.214Z,10.13
2022-12-29T05:02:33.037Z,10.17
2022-12-29T05:05:00.454Z,10.18
2022-12-29T05:07:27.064Z,10.16
2022-12-29T05:09:54.833Z,10.14
2022-12-29T05:12:21.532Z,10.16
2022-12-29T05:14:59.617Z,10.21
2022-12-29T05:17:26.729Z,10.17
2022-12-29T05:19:53.476Z,10.20
2022-12-29T05:22:20.326Z,10.20
2022-12-29T05:24:47.061Z,10.20
2022-12-29T05:27:13.619Z,10.20
2022-12-29T05:29:48.663Z,10.22
2022-12-29T05:32:15.273Z,10.20
2022-12-29T05:34:42.888Z,10.18
2022-12-29T05:37:09.469Z,10.21
2022-12-29T05:39:35.889Z,10.24
2022-12-29T05:42:04.899Z,10.28
2022-12-29T05:44:50.887Z,10.31
2022-12-29T05:47:24.381Z,10.34
2022-12-29T05:50:03.880Z,10.38
2022-12-29T05:52:53.311Z,10.40
2022-12-29T05:55:20.646Z,10.42
2022-12-29T05:57:49.270Z,10.48
2022-12-29T06:00:17.454Z,10.51
2022-12-29T06:02:46.666Z,10.53
2022-12-29T06:05:15.225Z,10.54
2022-12-29T06:07:41.850Z,10.58
2022-12-29T06:10:09.103Z,10.63
2022-12-29T06:12:43.516Z,10.67
2022-12-29T06:15:10.763Z,10.73
2022-12-29T06:17:40.108Z,10.77
2022-12-29T06:20:07.541Z,10.79
2022-12-29T06:22:34.373Z,10.82
2022-12-29T06:25:05.142Z,10.85
2022-12-29T06:27:33.266Z,10.86
2022-12-29T06:30:00.517Z,10.85
2022-12-29T06:32:27.685Z,10.74
2022-12-29T06:35:00.234Z,10.67
2022-12-29T06:37:27.402Z,10.68
2022-12-29T06:39:53.852Z,10.73
2022-12-29T06:42:21.300Z,10.76
2022-12-29T06:45:08.305Z,10.66
2022-12-29T06:47:35.779Z,10.48
2022-12-29T06:50:02.549Z,10.37
2022-12-29T06:52:29.569Z,10.28
2022-12-29T06:54:56.520Z,10.27
2022-12-29T06:57:22.888Z,10.29
2022-12-29T06:59:49.244Z,10.28
2022-12-29T07:02:17.678Z,10.26
2022-12-29T07:04:44.326Z,10.26
2022-12-29T07:07:10.674Z,10.30
2022-12-29T07:09:37.257Z,10.32
2022-12-29T07:12:03.968Z,10.36
2022-12-29T07:14:30.668Z,10.39
2022-12-29T07:16:57.066Z,10.45
2022-12-29T07:19:23.510Z,10.47
2022-12-29T07:21:49.857Z,10.47
2022-12-29T07:24:16.425Z,10.47
2022-12-29T07:26:42.999Z,10.49
2022-12-29T07:29:09.459Z,10.46
2022-12-29T07:31:35.944Z,10.48
2022-12-29T07:34:02.536Z,10.49
2022-12-29T07:36:34.182Z,10.51
2022-12-29T07:39:01.239Z,10.55
2022-12-29T07:41:27.620Z,10.58
2022-12-29T07:43:54.447Z,10.61
2022-12-29T07:46:55.217Z,10.61
2022-12-29T07:49:20.886Z,10.62
2022-12-29T07:51:47.253Z,10.63
2022-12-29T07:54:13.715Z,10.61
2022-12-29T07:56:40.267Z,10.59
2022-12-29T07:59:06.724Z,10.51
2022-12-29T08:01:33.214Z,10.48
2022-12-29T08:03:59.670Z,10.49
2022-12-29T08:06:26.206Z,10.48
2022-12-29T08:08:52.642Z,10.47
2022-12-29T08:11:19.170Z,10.46
2022-12-29T08:13:45.572Z,10.44
2022-12-29T08:16:12.011Z,10.43
2022-12-29T08:18:38.939Z,10.36
2022-12-29T08:21:06.547Z,10.36
2022-12-29T08:23:33.507Z,10.35
2022-12-29T08:26:01.604Z,10.39
2022-12-29T08:28:28.585Z,10.39
2022-12-29T08:30:58.956Z,10.41
2022-12-29T08:33:25.833Z,10.45
2022-12-29T08:35:52.442Z,10.47
2022-12-29T08:38:18.984Z,10.47
2022-12-29T08:40:45.421Z,10.48
2022-12-29T08:43:13.651Z,10.52
2022-12-29T08:45:41.961Z,10.55
2022-12-29T08:48:08.313Z,10.59
2022-12-29T08:50:34.828Z,10.66
2022-12-29T08:53:01.236Z,10.67
2022-12-29T08:55:28.660Z,10.64
2022-12-29T08:57:56.020Z,10.64
2022-12-29T09:00:24.108Z,10.63
2022-12-29T09:02:51.011Z,10.66
2022-12-29T09:05:17.683Z,10.71
2022-12-29T09:07:44.622Z,10.70
2022-12-29T09:10:11.174Z,10.68
2022-12-29T09:12:37.576Z,10.67
2022-12-29T09:15:05.659Z,10.65
2022-12-29T09:17:47.255Z,10.64
2022-12-29T09:20:17.134Z,10.68
2022-12-29T09:22:44.094Z,10.69
2022-12-29T09:25:11.814Z,10.78
2022-12-29T09:27:38.770Z,10.82
2022-12-29T09:30:07.378Z,10.88
2022-12-29T09:32:39.103Z,10.87
2022-12-29T09:35:08.692Z,10.79
2022-12-29T09:37:35.254Z,10.75
2022-12-29T09:40:01.639Z,10.74
2022-12-29T09:43:01.149Z,10.78
2022-12-29T09:45:33.281Z,10.85
2022-12-29T09:48:03.012Z,10.83
2022-12-29T09:50:36.465Z,10.86
2022-12-29T09:53:16.397Z,10.86
2022-12-29T09:55:50.736Z,10.83
2022-12-29T09:58:42.452Z,10.80
2022-12-29T10:01:19.895Z,10.81
2022-12-29T10:03:50.191Z,10.86
2022-12-29T10:06:24.363Z,10.94
2022-12-29T10:09:16.370Z,11.04
2022-12-29T10:11:59.268Z,11.12
2022-12-29T10:14:53.033Z,11.09
2022-12-29T10:17:33.060Z,11.02
2022-12-29T10:20:31.064Z,10.97
2022-12-29T10:23:35.018Z,11.05
2022-12-29T10:26:03.859Z,11.17
2022-12-29T10:28:55.609Z,11.33
2022-12-29T10:32:03.354Z,11.27
2022-12-29T10:34:37.057Z,11.27
2022-12-29T10:37:12.635Z,11.29
2022-12-29T10:39:50.181Z,11.28
2022-12-29T10:42:19.491Z,11.30
2022-12-29T10:44:46.060Z,11.38
2022-12-29T10:47:18.150Z,11.44
2022-12-29T10:49:47.653Z,11.60
2022-12-29T10:52:16.878Z,11.66
2022-12-29T10:54:49.629Z,11.55
2022-12-29T10:57:34.693Z,11.43
2022-12-29T11:00:01.113Z,11.43
2022-12-29T11:02:42.912Z,11.56
2022-12-29T11:05:27.994Z,11.79
2022-12-29T11:08:02.791Z,11.76
2022-12-29T11:10:43.751Z,11.66
2022-12-29T11:13:16.952Z,11.66
2022-12-29T11:15:51.049Z,11.69
2022-12-29T11:18:26.373Z,11.69
2022-12-29T11:21:01.209Z,11.70
2022-12-29T11:23:27.567Z,11.75
2022-12-29T11:26:18.740Z,11.78
2022-12-29T11:28:48.635Z,11.98
2022-12-29T11:31:22.604Z,12.05
2022-12-29T11:33:49.185Z,12.01
2022-12-29T11:36:22.628Z,11.97
2022-12-29T11:38:54.395Z,11.95
2022-12-29T11:41:24.679Z,11.88
2022-12-29T11:43:54.320Z,11.90
2022-12-29T11:46:25.232Z,12.01
2022-12-29T11:48:52.018Z,12.10
2022-12-29T11:51:44.468Z,12.07
2022-12-29T11:54:17.705Z,11.97
2022-12-29T11:56:44.589Z,11.89
2022-12-29T11:59:32.476Z,11.81
2022-12-29T12:02:02.059Z,11.72
2022-12-29T12:04:36.600Z,11.72
2022-12-29T12:07:08.718Z,11.82
2022-12-29T12:09:44.587Z,11.85
2022-12-29T12:12:25.911Z,11.74
2022-12-29T12:15:00.459Z,11.61
2022-12-29T12:18:05.709Z,11.51
2022-12-29T12:20:59.677Z,11.45
2022-12-29T12:24:07.757Z,11.40
2022-12-29T12:26:40.238Z,11.34
2022-12-29T12:29:15.156Z,11.35
2022-12-29T12:31:42.132Z,11.35
2022-12-29T12:34:16.436Z,11.35
2022-12-29T12:37:00.098Z,11.34
2022-12-29T12:40:13.528Z,11.34
2022-12-29T12:42:50.090Z,11.34
2022-12-29T12:45:34.440Z,11.26
2022-12-29T12:48:22.676Z,11.20
2022-12-29T12:50:56.578Z,11.20
2022-12-29T12:54:06.029Z,11.20
2022-12-29T12:56:48.100Z,11.23
2022-12-29T12:59:30.842Z,11.21
2022-12-29T13:02:21.946Z,11.19
2022-12-29T13:05:32.188Z,11.19
2022-12-29T13:08:24.805Z,11.19
2022-12-29T13:10:57.561Z,11.19
2022-12-29T13:13:32.822Z,11.23
2022-12-29T13:16:23.219Z,11.27
2022-12-29T13:19:00.968Z,11.24
2022-12-29T13:21:53.688Z,11.25
2022-12-29T13:24:45.402Z,11.22
2022-12-29T13:27:21.738Z,11.19
2022-12-29T13:30:00.472Z,10.94
2022-12-29T13:33:00.541Z,10.85
2022-12-29T13:35:50.917Z,10.78
2022-12-29T13:38:30.411Z,10.74
2022-12-29T13:41:03.235Z,10.73
2022-12-29T13:43:32.719Z,10.73
2022-12-29T13:46:13.929Z,10.73
2022-12-29T13:48:47.220Z,10.67
2022-12-29T13:51:14.423Z,10.61
2022-12-29T13:53:55.897Z,10.58
2022-12-29T13:56:32.751Z,10.60
2022-12-29T13:59:20.297Z,10.58
2022-12-29T14:02:14.446Z,10.59
2022-12-29T14:05:00.984Z,10.55
2022-12-29T14:07:28.984Z,10.55
2022-12-29T14:09:57.469Z,10.49
2022-12-29T14:12:32.560Z,10.49
2022-12-29T14:15:12.331Z,9.95
2022-12-29T14:17:48.235Z,9.34
2022-12-29T14:20:23.776Z,9.04
2022-12-29T14:23:13.484Z,8.76
2022-12-29T14:26:33.291Z,8.68
2022-12-29T14:29:41.941Z,8.64
2022-12-29T14:32:26.486Z,8.61
2022-12-29T14:34:57.458Z,8.55
2022-12-29T14:37:35.165Z,8.57
2022-12-29T14:40:18.882Z,8.61
2022-12-29T14:42:47.163Z,8.63
2022-12-29T14:45:13.708Z,8.67
2022-12-29T14:47:51.252Z,8.72
2022-12-29T14:50:23.976Z,8.85
2022-12-29T14:52:58.451Z,8.92
2022-12-29T14:55:50.683Z,8.89
2022-12-29T14:58:23.422Z,8.83
2022-12-29T15:00:50.275Z,8.78
2022-12-29T15:03:52.532Z,8.82
2022-12-29T15:06:23.091Z,8.79
2022-12-29T15:09:07.368Z,8.84
2022-12-29T15:11:36.561Z,8.87
2022-12-29T15:14:03.206Z,8.83
2022-12-29T15:16:37.106Z,8.81
2022-12-29T15:19:06.055Z,8.84
2022-12-29T15:21:35.930Z,8.79
2022-12-29T15:24:04.288Z,8.89
2022-12-29T15:26:42.959Z,8.96
2022-12-29T15:29:32.625Z,8.96
2022-12-29T15:32:18.726Z,9.00
2022-12-29T15:34:47.701Z,9.05
2022-12-29T15:37:26.511Z,9.06
2022-12-29T15:39:54.822Z,9.07
2022-12-29T15:42:45.864Z,9.09
2022-12-29T15:45:14.436Z,9.11
2022-12-29T15:47:43.378Z,9.06
2022-12-29T15:50:20.105Z,9.09
2022-12-29T15:52:47.041Z,9.09
2022-12-29T15:55:33.547Z,9.18
2022-12-29T15:58:01.892Z,9.19
2022-12-29T16:00:31.919Z,9.13
2022-12-29T16:03:02.063Z,9.14
2022-12-29T16:05:36.710Z,9.12
2022-12-29T16:08:04.597Z,9.13
2022-12-29T16:10:41.054Z,9.17
2022-12-29T16:13:29.746Z,9.08
2022-12-29T16:16:03.662Z,9.07
2022-12-29T16:18:36.079Z,8.96
2022-12-29T16:21:04.898Z,8.90
2022-12-29T16:23:33.012Z,8.93
2022-12-29T16:26:00.044Z,9.01
2022-12-29T16:28:39.923Z,8.99
2022-12-29T16:31:17.108Z,8.97
2022-12-29T16:33:54.804Z,8.94
2022-12-29T16:36:40.430Z,8.97
2022-12-29T16:39:26.471Z,9.01
2022-12-29T16:41:54.031Z,9.05
2022-12-29T16:44:25.778Z,9.06
2022-12-29T16:47:01.629Z,9.05
2022-12-29T16:49:29.928Z,9.06
2022-12-29T16:51:56.789Z,9.07
2022-12-29T16:54:26.143Z,9.07
2022-12-29T16:56:53.336Z,9.06
2022-12-29T16:59:38.135Z,9.09
2022-12-29T17:02:15.111Z,9.10
2022-12-29T17:04:42.212Z,9.14
2022-12-29T17:07:18.287Z,9.16
2022-12-29T17:09:44.965Z,9.16
2022-12-29T17:12:17.609Z,9.18
2022-12-29T17:14:50.395Z,9.24
2022-12-29T17:17:32.355Z,9.24
2022-12-29T17:20:04.036Z,9.24
2022-12-29T17:22:31.309Z,9.25
2022-12-29T17:25:00.147Z,9.28
2022-12-29T17:27:48.429Z,9.26
2022-12-29T17:30:27.130Z,9.26
2022-12-29T17:33:05.567Z,9.25
2022-12-29T17:35:32.022Z,9.24
2022-12-29T17:37:58.429Z,9.24
2022-12-29T17:40:28.459Z,9.20
2022-12-29T17:42:57.385Z,9.21
2022-12-29T17:45:25.664Z,9.26
2022-12-29T17:47:52.291Z,9.32
2022-12-29T17:50:21.869Z,9.32
2022-12-29T17:52:53.014Z,9.33
2022-12-29T17:55:21.320Z,9.33
2022-12-29T17:57:47.769Z,9.33
2022-12-29T18:00:17.245Z,9.35
2022-12-29T18:02:44.348Z,9.33
2022-12-29T18:05:21.055Z,9.38
2022-12-29T18:07:47.638Z,9.38
2022-12-29T18:10:14.953Z,9.39
2022-12-29T18:12:44.163Z,9.38
2022-12-29T18:15:17.870Z,9.38
2022-12-29T18:17:44.632Z,9.38
2022-12-29T18:20:11.442Z,9.37
2022-12-29T18:22:37.859Z,9.37
2022-12-29T18:25:21.100Z,9.44
2022-12-29T18:27:48.896Z,9.47
2022-12-29T18:30:17.230Z,9.51
2022-12-29T18:32:43.788Z,9.49
2022-12-29T18:35:25.922Z,9.50
2022-12-29T18:37:52.406Z,9.54
2022-12-29T18:40:19.479Z,9.48
2022-12-29T18:42:46.207Z,9.42
2022-12-29T18:45:21.972Z,9.45
2022-12-29T18:47:48.819Z,9.42
2022-12-29T18:50:16.274Z,9.37
2022-12-29T18:52:42.901Z,9.40
2022-12-29T18:55:14.892Z,9.41
2022-12-29T18:57:41.408Z,9.38
2022-12-29T19:00:09.359Z,9.40
2022-12-29T19:02:36.238Z,9.42
2022-12-29T19:05:07.450Z,9.41
2022-12-29T19:07:35.093Z,9.40
2022-12-29T19:10:02.703Z,9.42
2022-12-29T19:12:29.329Z,9.43
2022-12-29T19:14:55.723Z,9.46
2022-12-29T19:17:23.031Z,9.47
2022-12-29T19:19:49.382Z,9.49
2022-12-29T19:22:15.755Z,9.48
2022-12-29T19:24:42.300Z,9.51
2022-12-29T19:27:09.212Z,9.52
2022-12-29T19:29:35.908Z,9.52
2022-12-29T19:32:02.386Z,9.49
2022-12-29T19:34:28.990Z,9.46
2022-12-29T19:36:56.778Z,9.44
2022-12-29T19:39:23.265Z,9.42
2022-12-29T19:41:49.606Z,9.43
2022-12-29T19:44:17.286Z,9.47
2022-12-29T19:46:43.708Z,9.48
2022-12-29T19:49:10.215Z,9.43
2022-12-29T19:51:36.687Z,9.39
2022-12-29T19:54:03.118Z,9.37
2022-12-29T19:56:29.749Z,9.41
2022-12-29T19:58:57.567Z,9.41
2022-12-29T20:01:24.399Z,9.43
2022-12-29T20:03:51.346Z,9.43
2022-12-29T20:06:18.705Z,9.34
2022-12-29T20:08:45.076Z,9.17
2022-12-29T20:11:14.291Z,8.99
2022-12-29T20:13:41.801Z,8.68
2022-12-29T20:16:13.029Z,8.44
2022-12-29T20:18:39.558Z,8.29
2022-12-29T20:21:09.743Z,8.18
2022-12-29T20:23:39.044Z,8.12
2022-12-29T20:26:06.511Z,8.16
2022-12-29T20:28:32.946Z,8.17
2022-12-29T20:31:03.177Z,8.13
2022-12-29T20:33:30.996Z,8.21
2022-12-29T20:36:05.666Z,8.13
2022-12-29T20:38:32.074Z,7.94
2022-12-29T20:40:58.544Z,7.88
2022-12-29T20:43:25.025Z,7.86
2022-12-29T20:45:51.604Z,7.89
2022-12-29T20:48:18.014Z,7.91
2022-12-29T20:50:44.463Z,7.82
2022-12-29T20:53:11.652Z,7.81
2022-12-29T20:55:41.233Z,7.83
2022-12-29T20:58:24.383Z,7.86
2022-12-29T21:00:51.708Z,7.95
2022-12-29T21:03:18.277Z,7.88
2022-12-29T21:05:44.898Z,7.86
2022-12-29T21:08:11.598Z,7.91
2022-12-29T21:10:38.280Z,7.86
2022-12-29T21:13:04.882Z,7.86
2022-12-29T21:15:32.640Z,7.88
2022-12-29T21:17:59.001Z,7.88
2022-12-29T21:20:32.156Z,7.84
2022-12-29T21:23:00.118Z,7.82
2022-12-29T21:25:37.069Z,7.81
2022-12-29T21:28:08.564Z,7.79
2022-12-29T21:30:35.755Z,7.79
2022-12-29T21:33:02.498Z,7.84
2022-12-29T21:35:29.034Z,7.77
2022-12-29T21:37:55.473Z,7.84
2022-12-29T21:40:22.646Z,7.87
2022-12-29T21:42:49.440Z,7.86
2022-12-29T21:45:24.955Z,7.82
2022-12-29T21:48:11.387Z,7.83
2022-12-29T21:50:58.832Z,7.84
2022-12-29T21:53:37.561Z,7.82
2022-12-29T21:56:08.625Z,7.79
2022-12-29T21:58:55.970Z,7.80
2022-12-29T22:01:41.866Z,7.79
2022-12-29T22:04:29.521Z,7.77
2022-12-29T22:07:14.374Z,7.76
2022-12-29T22:09:59.466Z,7.78
2022-12-29T22:12:44.225Z,7.81
2022-12-29T22:15:10.984Z,7.78
2022-12-29T22:17:37.904Z,7.77
2022-12-29T22:20:06.515Z,7.69
2022-12-29T22:22:32.902Z,7.70
2022-12-29T22:24:59.370Z,7.62
2022-12-29T22:27:25.724Z,7.58
2022-12-29T22:29:52.136Z,7.60
2022-12-29T22:32:18.574Z,7.67
2022-12-29T22:34:47.018Z,7.63
2022-12-29T22:37:13.789Z,7.55
2022-12-29T22:39:40.173Z,7.54
2022-12-29T22:42:07.168Z,7.56
2022-12-29T22:44:33.774Z,7.58
2022-12-29T22:47:00.252Z,7.57
2022-12-29T22:49:27.750Z,7.58
2022-12-29T22:51:54.359Z,7.55
2022-12-29T22:54:21.545Z,7.59
2022-12-29T22:56:48.014Z,7.65
2022-12-29T22:59:15.248Z,7.73
2022-12-29T23:01:41.868Z,7.77
2022-12-29T23:04:55.700Z,7.72
2022-12-29T23:06:55.083Z,7.77
2022-12-29T23:09:22.927Z,7.79
2022-12-29T23:11:50.578Z,7.80
2022-12-29T23:14:17.339Z,7.81
2022-12-29T23:16:44.717Z,7.78
2022-12-29T23:19:12.553Z,7.80
2022-12-29T23:21:39.061Z,7.84
2022-12-29T23:24:06.569Z,7.94
2022-12-29T23:26:37.408Z,7.97
2022-12-29T23:29:06.605Z,7.98
2022-12-29T23:31:33.588Z,7.94
2022-12-29T23:34:02.167Z,7.91
2022-12-29T23:36:29.696Z,7.90
2022-12-29T23:38:56.795Z,7.94
2022-12-29T23:41:23.802Z,7.94
2022-12-29T23:43:50.239Z,7.96
2022-12-29T23:46:19.858Z,7.98
2022-12-29T23:48:46.303Z,8.00
2022-12-29T23:51:13.817Z,8.03
2022-12-29T23:53:42.569Z,8.04
2022-12-29T23:56:16.038Z,8.07
2022-12-29T23:58:42.432Z,8.12
